Time;durP1;ratioP1;P1;durP2;ratioP2;P2;SDS_P1;SDS_P2;PMS_P1;PMS_P2;Temp;Humidity;BMP_temperature;BMP_pressure;BME280_temperature;BME280_humidity;BME280_pressure;Samples;Min_cycle;Max_cycle;Signal;HPM_P1;HPM_P2
2022/03/01 00:01:09;;;;;;;;;;;21.60;28.90;;;;;;477386;250;1357;-39
2022/03/01 00:03:11;;;;;;;;;;;21.50;28.90;;;;;;478569;249;1226;-38
2022/03/01 00:05:12;;;;;;;;;;;21.50;28.90;;;;;;477558;250;1045;-38
2022/03/01 00:07:13;;;;;;;;;;;21.60;28.90;;;;;;478057;249;1222;-38
2022/03/01 00:09:15;;;;;;;;;;;21.60;28.90;;;;;;477182;250;1072;-39
2022/03/01 00:11:16;;;;;;;;;;;21.60;28.90;;;;;;478105;249;1306;-38
2022/03/01 00:13:17;;;;;;;;;;;21.60;28.90;;;;;;477642;250;1269;-38
2022/03/01 00:15:19;;;;;;;;;;;21.50;28.90;;;;;;478339;249;1216;-39
2022/03/01 00:17:20;;;;;;;;;;;21.60;28.90;;;;;;477558;250;2108;-39
2022/03/01 00:19:21;;;;;;;;;;;21.60;28.90;;;;;;478224;249;1070;-38
2022/03/01 00:21:23;;;;;;;;;;;21.60;28.90;;;;;;477544;250;1391;-39
2022/03/01 00:23:24;;;;;;;;;;;21.60;28.90;;;;;;478570;249;1093;-39
2022/03/01 00:25:25;;;;;;;;;;;21.60;28.90;;;;;;477572;250;1045;-39
2022/03/01 00:27:27;;;;;;;;;;;21.60;29.00;;;;;;478253;249;1208;-39
2022/03/01 00:29:28;;;;;;;;;;;21.60;29.00;;;;;;477431;250;1069;-38
2022/03/01 00:31:29;;;;;;;;;;;21.60;29.00;;;;;;478132;249;1237;-39
2022/03/01 00:33:31;;;;;;;;;;;21.60;28.90;;;;;;477229;250;1113;-39
2022/03/01 00:35:32;;;;;;;;;;;21.60;28.90;;;;;;478248;249;1098;-38
2022/03/01 00:37:33;;;;;;;;;;;21.60;28.90;;;;;;477074;250;2207;-39
2022/03/01 00:39:34;;;;;;;;;;;21.60;28.90;;;;;;478125;249;1062;-39
2022/03/01 00:41:36;;;;;;;;;;;21.60;28.90;;;;;;477255;250;1523;-39
2022/03/01 00:43:37;;;;;;;;;;;21.60;28.90;;;;;;478472;249;1102;-38
2022/03/01 00:45:38;;;;;;;;;;;21.60;28.90;;;;;;477315;250;1192;-38
2022/03/01 00:47:40;;;;;;;;;;;21.60;28.90;;;;;;478479;249;1201;-39
2022/03/01 00:49:41;;;;;;;;;;;21.50;28.90;;;;;;477572;250;1138;-39
2022/03/01 00:51:42;;;;;;;;;;;21.50;28.90;;;;;;478522;249;1169;-39
2022/03/01 00:53:44;;;;;;;;;;;21.50;28.90;;;;;;477191;250;1192;-39
2022/03/01 00:55:45;;;;;;;;;;;21.60;28.90;;;;;;478296;249;1145;-39
2022/03/01 00:57:46;;;;;;;;;;;21.60;28.90;;;;;;477586;250;2124;-39
2022/03/01 00:59:48;;;;;;;;;;;21.50;28.90;;;;;;478548;249;1258;-39
2022/03/01 01:01:49;;;;;;;;;;;21.60;28.90;;;;;;477101;250;1183;-39
2022/03/01 01:03:50;;;;;;;;;;;21.50;28.90;;;;;;478189;249;1004;-39
2022/03/01 01:05:52;;;;;;;;;;;21.50;28.90;;;;;;477152;250;1151;-38
2022/03/01 01:07:53;;;;;;;;;;;21.50;29.00;;;;;;478310;249;1053;-39
2022/03/01 01:09:54;;;;;;;;;;;21.50;28.90;;;;;;477218;250;1250;-38
2022/03/01 01:11:56;;;;;;;;;;;21.50;28.90;;;;;;478080;249;1235;-39
2022/03/01 01:13:57;;;;;;;;;;;21.60;28.90;;;;;;477578;250;1146;-39
2022/03/01 01:15:58;;;;;;;;;;;21.50;28.90;;;;;;478338;249;1167;-39
2022/03/01 01:18:00;;;;;;;;;;;21.50;28.90;;;;;;477149;250;2187;-39
2022/03/01 01:20:01;;;;;;;;;;;21.50;29.00;;;;;;478596;249;1033;-39
2022/03/01 01:24:22;;;;;;;;;;;21.50;28.90;;;;;;478548;249;2270;-39
2022/03/01 01:26:23;;;;;;;;;;;21.50;28.90;;;;;;477540;250;1466;-39
2022/03/01 01:28:25;;;;;;;;;;;21.50;28.90;;;;;;478547;249;1169;-39
2022/03/01 01:30:26;;;;;;;;;;;21.50;28.90;;;;;;477510;250;1250;-39
2022/03/01 01:32:27;;;;;;;;;;;21.50;28.90;;;;;;478361;249;1080;-39
2022/03/01 01:34:28;;;;;;;;;;;21.50;28.90;;;;;;477154;250;1360;-39
2022/03/01 01:36:30;;;;;;;;;;;21.50;28.90;;;;;;478021;249;2211;-39
2022/03/01 01:38:31;;;;;;;;;;;21.50;28.90;;;;;;477602;250;1143;-39
2022/03/01 01:40:32;;;;;;;;;;;21.50;28.90;;;;;;478169;249;1072;-39
2022/03/01 01:42:34;;;;;;;;;;;21.50;28.90;;;;;;477499;250;1673;-39
2022/03/01 01:44:35;;;;;;;;;;;21.50;28.90;;;;;;478631;249;1074;-39
2022/03/01 01:46:36;;;;;;;;;;;21.60;28.90;;;;;;477263;250;1214;-39
2022/03/01 01:48:38;;;;;;;;;;;21.50;28.90;;;;;;478659;249;985;-38
2022/03/01 01:50:39;;;;;;;;;;;21.50;28.90;;;;;;477625;250;1051;-38
2022/03/01 01:52:40;;;;;;;;;;;21.50;28.90;;;;;;478151;249;1183;-38
2022/03/01 01:54:42;;;;;;;;;;;21.50;28.80;;;;;;477167;250;1200;-39
2022/03/01 01:56:43;;;;;;;;;;;21.50;28.80;;;;;;478074;249;2195;-39
2022/03/01 01:58:44;;;;;;;;;;;21.50;28.90;;;;;;477654;250;1087;-39
2022/03/01 02:00:46;;;;;;;;;;;21.50;28.90;;;;;;478425;249;1262;-39
2022/03/01 02:02:47;;;;;;;;;;;21.50;28.90;;;;;;477628;250;1198;-39
2022/03/01 02:04:48;;;;;;;;;;;21.50;28.90;;;;;;478193;249;1071;-39
2022/03/01 02:06:49;;;;;;;;;;;21.50;28.90;;;;;;477163;250;1329;-39
2022/03/01 02:08:51;;;;;;;;;;;21.50;28.90;;;;;;478181;249;1066;-39
2022/03/01 02:10:52;;;;;;;;;;;21.40;28.90;;;;;;477496;250;1077;-39
2022/03/01 02:12:55;;;;;;;;;;;21.50;28.90;;;;;;478528;249;1160;-39
2022/03/01 02:14:55;;;;;;;;;;;21.50;28.90;;;;;;477091;250;1882;-38
2022/03/01 02:16:56;;;;;;;;;;;21.50;28.90;;;;;;478219;249;2195;-39
2022/03/01 02:18:57;;;;;;;;;;;21.50;28.90;;;;;;477640;250;1058;-39
2022/03/01 02:20:59;;;;;;;;;;;21.50;28.90;;;;;;478448;249;1253;-38
2022/03/01 02:23:01;;;;;;;;;;;21.50;28.90;;;;;;477590;250;1305;-38
2022/03/01 02:25:03;;;;;;;;;;;21.50;28.90;;;;;;478165;249;1046;-39
2022/03/01 02:27:04;;;;;;;;;;;21.50;28.90;;;;;;477550;250;1192;-38
2022/03/01 02:29:05;;;;;;;;;;;21.50;28.90;;;;;;478424;249;1079;-39
2022/03/01 02:31:06;;;;;;;;;;;21.50;28.90;;;;;;477116;243;1212;-38
2022/03/01 02:33:08;;;;;;;;;;;21.50;28.90;;;;;;478117;249;1193;-39
2022/03/01 02:35:09;;;;;;;;;;;21.50;28.90;;;;;;477159;250;964;-39
2022/03/01 02:37:11;;;;;;;;;;;21.50;28.90;;;;;;478304;249;2195;-39
2022/03/01 02:39:12;;;;;;;;;;;21.50;28.90;;;;;;477593;250;2018;-39
2022/03/01 02:41:13;;;;;;;;;;;21.50;28.90;;;;;;478556;249;1570;-38
2022/03/01 02:43:16;;;;;;;;;;;21.50;28.90;;;;;;477566;250;1716;-39
2022/03/01 02:45:16;;;;;;;;;;;21.50;28.80;;;;;;478563;249;2251;-39
2022/03/01 02:47:17;;;;;;;;;;;21.50;28.80;;;;;;477298;250;1831;-38
2022/03/01 02:49:19;;;;;;;;;;;21.50;28.80;;;;;;478575;249;1644;-39
2022/03/01 02:51:20;;;;;;;;;;;21.50;28.80;;;;;;477376;242;1272;-39
2022/03/01 02:53:21;;;;;;;;;;;21.60;28.80;;;;;;478608;249;1115;-39
2022/03/01 02:55:22;;;;;;;;;;;21.60;28.80;;;;;;477601;250;1209;-39
2022/03/01 02:57:24;;;;;;;;;;;21.50;28.80;;;;;;478237;249;2124;-39
2022/03/01 02:59:25;;;;;;;;;;;21.60;28.80;;;;;;477151;250;2268;-38
2022/03/01 03:01:26;;;;;;;;;;;21.50;28.80;;;;;;478408;249;1298;-39
2022/03/01 03:03:28;;;;;;;;;;;21.50;28.90;;;;;;477640;250;1027;-39
2022/03/01 03:05:29;;;;;;;;;;;21.50;28.90;;;;;;478111;249;1152;-39
2022/03/01 03:07:30;;;;;;;;;;;21.50;28.90;;;;;;477532;250;1177;-39
2022/03/01 03:09:32;;;;;;;;;;;21.50;28.90;;;;;;478134;249;1017;-38
2022/03/01 03:11:33;;;;;;;;;;;21.50;28.90;;;;;;477410;250;1433;-39
2022/03/01 03:13:34;;;;;;;;;;;21.50;28.90;;;;;;478634;249;1113;-39
2022/03/01 03:15:37;;;;;;;;;;;21.50;28.90;;;;;;477592;250;1249;-39
2022/03/01 03:17:37;;;;;;;;;;;21.50;28.90;;;;;;477962;249;2309;-39
2022/03/01 03:19:38;;;;;;;;;;;21.50;28.90;;;;;;477577;250;1093;-39
2022/03/01 03:21:40;;;;;;;;;;;21.60;28.90;;;;;;478375;249;1385;-39
2022/03/01 03:23:41;;;;;;;;;;;21.50;28.90;;;;;;477612;250;1051;-39
2022/03/01 03:25:42;;;;;;;;;;;21.60;28.90;;;;;;478380;249;1200;-39
2022/03/01 03:27:43;;;;;;;;;;;21.50;28.90;;;;;;477108;250;1166;-38
2022/03/01 03:29:45;;;;;;;;;;;21.50;28.90;;;;;;478128;249;1071;-39
2022/03/01 03:31:46;;;;;;;;;;;21.50;28.90;;;;;;477540;250;1221;-38
2022/03/01 03:33:47;;;;;;;;;;;21.50;28.90;;;;;;478630;249;1118;-38
2022/03/01 03:35:49;;;;;;;;;;;21.50;28.90;;;;;;477629;250;1143;-39
2022/03/01 03:37:50;;;;;;;;;;;21.50;28.90;;;;;;478552;249;2177;-39
2022/03/01 03:39:51;;;;;;;;;;;21.50;28.90;;;;;;477574;250;1074;-39
2022/03/01 03:41:53;;;;;;;;;;;21.50;28.90;;;;;;478274;249;1321;-39
2022/03/01 03:43:54;;;;;;;;;;;21.60;28.90;;;;;;477601;250;1135;-39
2022/03/01 03:45:56;;;;;;;;;;;21.50;28.90;;;;;;478214;249;2178;-38
2022/03/01 03:47:57;;;;;;;;;;;21.50;28.90;;;;;;477360;250;1945;-39
2022/03/01 03:49:58;;;;;;;;;;;21.60;28.90;;;;;;478572;249;1049;-38
2022/03/01 03:52:00;;;;;;;;;;;21.50;28.90;;;;;;477351;250;1403;-39
2022/03/01 03:54:01;;;;;;;;;;;21.50;28.90;;;;;;478595;249;1427;-39
2022/03/01 03:56:02;;;;;;;;;;;21.50;28.90;;;;;;477142;250;1085;-39
2022/03/01 03:58:03;;;;;;;;;;;21.50;28.90;;;;;;478150;249;2198;-39
2022/03/01 04:00:05;;;;;;;;;;;21.50;28.90;;;;;;477324;250;1085;-39
2022/03/01 04:02:06;;;;;;;;;;;21.50;28.90;;;;;;478546;249;1261;-39
2022/03/01 04:04:08;;;;;;;;;;;21.60;28.90;;;;;;477189;250;1070;-39
2022/03/01 04:06:10;;;;;;;;;;;21.50;28.90;;;;;;478557;249;1223;-38
2022/03/01 04:08:13;;;;;;;;;;;21.60;28.90;;;;;;477647;250;1070;-39
2022/03/01 04:10:12;;;;;;;;;;;21.60;28.90;;;;;;478043;249;2162;-38
2022/03/01 04:12:13;;;;;;;;;;;21.60;28.90;;;;;;477212;250;1212;-39
2022/03/01 04:14:17;;;;;;;;;;;21.60;28.90;;;;;;478247;249;994;-39
2022/03/01 04:16:16;;;;;;;;;;;21.50;28.90;;;;;;477247;250;1422;-39
2022/03/01 04:18:17;;;;;;;;;;;21.50;28.90;;;;;;478299;249;2187;-39
2022/03/01 04:20:21;;;;;;;;;;;21.50;28.90;;;;;;477611;250;1072;-39
2022/03/01 04:22:20;;;;;;;;;;;21.50;28.90;;;;;;478332;249;2229;-39
2022/03/01 04:24:21;;;;;;;;;;;21.50;28.90;;;;;;477199;250;1088;-38
2022/03/01 04:26:23;;;;;;;;;;;21.50;28.90;;;;;;478542;247;1417;-39
2022/03/01 04:28:24;;;;;;;;;;;21.50;28.90;;;;;;477617;250;1096;-39
2022/03/01 04:30:27;;;;;;;;;;;21.50;28.90;;;;;;478582;249;1132;-39
2022/03/01 04:32:27;;;;;;;;;;;21.50;28.90;;;;;;476964;250;2061;-39
2022/03/01 04:34:28;;;;;;;;;;;21.50;28.90;;;;;;478578;249;1073;-39
2022/03/01 04:36:29;;;;;;;;;;;21.50;28.90;;;;;;477515;250;1115;-39
2022/03/01 04:38:31;;;;;;;;;;;21.50;28.90;;;;;;478361;249;2135;-39
2022/03/01 04:40:32;;;;;;;;;;;21.50;28.90;;;;;;477129;250;1194;-39
2022/03/01 04:42:33;;;;;;;;;;;21.50;28.90;;;;;;478290;249;1297;-38
2022/03/01 04:44:35;;;;;;;;;;;21.50;29.00;;;;;;477194;250;1127;-39
2022/03/01 04:46:36;;;;;;;;;;;21.50;29.00;;;;;;478075;249;1318;-39
2022/03/01 04:48:38;;;;;;;;;;;21.50;28.90;;;;;;477369;250;1205;-38
2022/03/01 04:50:39;;;;;;;;;;;21.50;29.00;;;;;;478527;249;1138;-39
2022/03/01 04:52:40;;;;;;;;;;;21.50;28.90;;;;;;477149;250;1253;-38
2022/03/01 04:54:42;;;;;;;;;;;21.50;28.90;;;;;;478610;249;1065;-39
2022/03/01 04:56:43;;;;;;;;;;;21.50;28.90;;;;;;477130;250;1399;-39
2022/03/01 04:58:44;;;;;;;;;;;21.50;28.90;;;;;;478140;249;2128;-39
2022/03/01 05:00:46;;;;;;;;;;;21.50;28.90;;;;;;477322;250;1083;-39
2022/03/01 05:02:47;;;;;;;;;;;21.60;28.90;;;;;;478343;249;1184;-39
2022/03/01 05:04:49;;;;;;;;;;;21.60;28.90;;;;;;477197;250;1072;-38
2022/03/01 05:06:51;;;;;;;;;;;21.60;28.90;;;;;;478286;249;1317;-38
2022/03/01 05:08:51;;;;;;;;;;;21.60;28.90;;;;;;477550;250;2162;-39
2022/03/01 05:10:53;;;;;;;;;;;21.50;28.90;;;;;;478576;249;1177;-39
2022/03/01 05:12:54;;;;;;;;;;;21.60;28.90;;;;;;477153;250;1191;-39
2022/03/01 05:14:55;;;;;;;;;;;21.50;28.90;;;;;;478097;249;1105;-39
2022/03/01 05:16:57;;;;;;;;;;;21.60;28.90;;;;;;477209;250;1412;-38
2022/03/01 05:18:58;;;;;;;;;;;21.50;28.90;;;;;;478038;249;2132;-39
2022/03/01 05:20:59;;;;;;;;;;;21.50;28.90;;;;;;476968;250;1421;-38
2022/03/01 05:23:00;;;;;;;;;;;21.50;28.90;;;;;;478510;249;1217;-39
2022/03/01 05:25:02;;;;;;;;;;;21.60;29.00;;;;;;477436;250;1029;-39
2022/03/01 05:27:03;;;;;;;;;;;21.60;28.90;;;;;;478489;249;1365;-39
2022/03/01 05:29:07;;;;;;;;;;;21.50;28.90;;;;;;477457;250;1067;-38
2022/03/01 05:31:06;;;;;;;;;;;21.50;28.90;;;;;;478119;249;2314;-38
2022/03/01 05:33:07;;;;;;;;;;;21.40;28.90;;;;;;477275;250;1206;-39
2022/03/01 05:35:09;;;;;;;;;;;21.40;29.00;;;;;;478426;249;1062;-38
2022/03/01 05:37:10;;;;;;;;;;;21.40;28.90;;;;;;477115;250;1246;-39
2022/03/01 05:39:11;;;;;;;;;;;21.50;28.90;;;;;;477899;249;2136;-39
2022/03/01 05:41:13;;;;;;;;;;;21.50;29.00;;;;;;477220;250;1372;-39
2022/03/01 05:43:15;;;;;;;;;;;21.40;28.90;;;;;;478022;249;1698;-38
2022/03/01 05:45:16;;;;;;;;;;;21.50;29.00;;;;;;477468;250;1101;-39
2022/03/01 05:47:17;;;;;;;;;;;21.50;28.90;;;;;;478383;249;1498;-39
2022/03/01 05:49:19;;;;;;;;;;;21.50;28.90;;;;;;477201;250;1114;-39
2022/03/01 05:51:20;;;;;;;;;;;21.50;28.90;;;;;;478092;249;1199;-39
2022/03/01 05:53:21;;;;;;;;;;;21.60;28.90;;;;;;476953;250;1101;-38
2022/03/01 05:55:22;;;;;;;;;;;21.50;28.90;;;;;;478110;249;1079;-38
2022/03/01 05:57:27;;;;;;;;;;;21.50;28.90;;;;;;476926;250;1571;-39
2022/03/01 05:59:25;;;;;;;;;;;21.50;28.90;;;;;;477781;249;2190;-39
2022/03/01 06:01:27;;;;;;;;;;;21.50;28.90;;;;;;476822;250;1101;-39
2022/03/01 06:03:28;;;;;;;;;;;21.50;28.90;;;;;;477971;249;1297;-39
2022/03/01 06:05:29;;;;;;;;;;;21.50;28.90;;;;;;477199;250;1081;-39
2022/03/01 06:07:30;;;;;;;;;;;21.50;28.90;;;;;;478028;249;1388;-38
2022/03/01 06:09:32;;;;;;;;;;;21.50;28.80;;;;;;477349;250;1109;-39
2022/03/01 06:11:33;;;;;;;;;;;21.50;28.80;;;;;;477786;249;1316;-38
2022/03/01 06:13:37;;;;;;;;;;;21.50;28.90;;;;;;476996;250;1201;-39
2022/03/01 06:15:36;;;;;;;;;;;21.50;28.80;;;;;;477950;249;2187;-39
2022/03/01 06:17:37;;;;;;;;;;;21.50;28.80;;;;;;476829;250;1213;-39
2022/03/01 06:19:38;;;;;;;;;;;21.50;28.80;;;;;;477985;249;2132;-39
2022/03/01 06:21:40;;;;;;;;;;;21.50;28.90;;;;;;477147;250;1246;-39
2022/03/01 06:23:41;;;;;;;;;;;21.50;28.80;;;;;;477866;249;1084;-39
2022/03/01 06:25:43;;;;;;;;;;;21.50;28.90;;;;;;476824;250;1321;-39
2022/03/01 06:27:44;;;;;;;;;;;21.50;28.80;;;;;;477984;249;1508;-39
2022/03/01 06:29:45;;;;;;;;;;;21.50;28.80;;;;;;476881;250;1091;-39
2022/03/01 06:31:47;;;;;;;;;;;21.50;28.80;;;;;;477758;249;1181;-38
2022/03/01 06:33:48;;;;;;;;;;;21.50;28.90;;;;;;477293;250;1394;-39
2022/03/01 06:35:49;;;;;;;;;;;21.50;28.90;;;;;;477888;249;1333;-39
2022/03/01 06:37:51;;;;;;;;;;;21.40;28.80;;;;;;476781;250;1525;-39
2022/03/01 06:39:53;;;;;;;;;;;21.50;28.90;;;;;;478200;249;2131;-39
2022/03/01 06:41:53;;;;;;;;;;;21.50;28.80;;;;;;476665;250;2360;-39
2022/03/01 06:43:55;;;;;;;;;;;21.50;28.80;;;;;;477671;249;1109;-39
2022/03/01 06:45:56;;;;;;;;;;;21.50;28.90;;;;;;476694;250;1351;-39
2022/03/01 06:47:58;;;;;;;;;;;21.40;28.80;;;;;;477707;249;1267;-39
2022/03/01 06:50:00;;;;;;;;;;;21.50;28.90;;;;;;476792;250;1179;-39
2022/03/01 06:52:01;;;;;;;;;;;21.50;28.80;;;;;;477832;249;1303;-39
2022/03/01 06:54:02;;;;;;;;;;;21.50;28.80;;;;;;477180;250;1220;-39
2022/03/01 06:56:04;;;;;;;;;;;21.50;28.80;;;;;;477757;249;1340;-39
2022/03/01 06:58:05;;;;;;;;;;;21.50;28.80;;;;;;476811;250;2128;-39
2022/03/01 07:00:07;;;;;;;;;;;21.50;28.80;;;;;;477668;249;1084;-39
2022/03/01 07:02:08;;;;;;;;;;;21.50;28.80;;;;;;476673;250;1257;-39
2022/03/01 07:04:09;;;;;;;;;;;21.50;28.80;;;;;;477682;249;1235;-39
2022/03/01 07:06:11;;;;;;;;;;;21.50;28.80;;;;;;476645;250;1334;-39
2022/03/01 07:08:13;;;;;;;;;;;21.50;28.80;;;;;;477909;249;1184;-39
2022/03/01 07:10:13;;;;;;;;;;;21.50;28.80;;;;;;476970;250;2486;-39
2022/03/01 07:12:15;;;;;;;;;;;21.50;28.80;;;;;;477909;249;1763;-39
2022/03/01 07:14:16;;;;;;;;;;;21.50;28.80;;;;;;476774;250;1094;-39
2022/03/01 07:16:17;;;;;;;;;;;21.40;28.80;;;;;;477815;249;1344;-39
2022/03/01 07:18:18;;;;;;;;;;;21.50;28.80;;;;;;477001;250;2195;-39
2022/03/01 07:20:20;;;;;;;;;;;21.50;28.80;;;;;;477739;249;1181;-39
2022/03/01 07:22:21;;;;;;;;;;;21.50;28.70;;;;;;476888;250;1236;-39
2022/03/01 07:24:23;;;;;;;;;;;21.50;28.70;;;;;;477553;249;1179;-39
2022/03/01 07:26:24;;;;;;;;;;;21.50;28.70;;;;;;476679;243;1345;-39
2022/03/01 07:28:27;;;;;;;;;;;21.50;28.70;;;;;;477508;249;1181;-39
2022/03/01 07:30:27;;;;;;;;;;;21.50;28.60;;;;;;476485;250;2252;-39
2022/03/01 07:32:28;;;;;;;;;;;21.50;28.60;;;;;;477376;249;2543;-39
2022/03/01 07:34:29;;;;;;;;;;;21.50;28.60;;;;;;476472;250;1084;-39
2022/03/01 07:36:31;;;;;;;;;;;21.50;28.60;;;;;;477318;249;1228;-39
2022/03/01 07:38:32;;;;;;;;;;;21.60;28.60;;;;;;476388;250;2149;-39
2022/03/01 07:40:33;;;;;;;;;;;21.50;28.60;;;;;;477489;249;1231;-39
2022/03/01 07:42:35;;;;;;;;;;;21.50;28.50;;;;;;476676;250;1246;-39
2022/03/01 07:44:37;;;;;;;;;;;21.50;28.50;;;;;;477326;249;1085;-39
2022/03/01 07:46:38;;;;;;;;;;;21.50;28.50;;;;;;476435;250;1544;-39
2022/03/01 07:48:39;;;;;;;;;;;21.50;28.50;;;;;;477414;249;1394;-39
2022/03/01 07:50:40;;;;;;;;;;;21.50;28.50;;;;;;476431;250;1210;-39
2022/03/01 07:52:41;;;;;;;;;;;21.50;28.50;;;;;;477468;249;1231;-39
2022/03/01 07:54:43;;;;;;;;;;;21.60;28.50;;;;;;476277;250;2500;-39
2022/03/01 07:56:44;;;;;;;;;;;21.60;28.50;;;;;;460230;249;33479;-39
2022/03/01 07:58:45;;;;;;;;;;;21.60;28.50;;;;;;455628;260;2212;-39
2022/03/01 08:00:47;;;;;;;;;;;21.60;28.50;;;;;;455621;260;1139;-39
2022/03/01 08:02:48;;;;;;;;;;;21.60;28.50;;;;;;455725;260;1222;-39
2022/03/01 08:04:49;;;;;;;;;;;21.60;28.50;;;;;;455609;260;1218;-39
2022/03/01 08:06:51;;;;;;;;;;;21.60;28.40;;;;;;455513;260;1301;-39
2022/03/01 08:08:52;;;;;;;;;;;21.60;28.40;;;;;;455690;260;1101;-39
2022/03/01 08:10:53;;;;;;;;;;;21.60;28.40;;;;;;455634;260;1117;-39
2022/03/01 08:12:55;;;;;;;;;;;21.60;28.40;;;;;;455589;260;1222;-39
2022/03/01 08:14:56;;;;;;;;;;;21.70;28.40;;;;;;455671;260;1176;-39
2022/03/01 08:16:57;;;;;;;;;;;21.60;28.40;;;;;;455509;260;1202;-39
2022/03/01 08:18:59;;;;;;;;;;;21.70;28.40;;;;;;462187;256;2205;-39
2022/03/01 08:21:00;;;;;;;;;;;21.60;28.30;;;;;;462198;257;1304;-39
2022/03/01 08:23:02;;;;;;;;;;;21.60;28.40;;;;;;462120;257;1170;-39
2022/03/01 08:25:03;;;;;;;;;;;21.60;28.40;;;;;;461899;257;1079;-39
2022/03/01 08:27:05;;;;;;;;;;;21.60;28.40;;;;;;461923;257;1227;-39
2022/03/01 08:29:06;;;;;;;;;;;21.60;28.40;;;;;;462441;257;1122;-39
2022/03/01 08:31:08;;;;;;;;;;;21.60;28.40;;;;;;461846;257;1137;-39
2022/03/01 08:33:09;;;;;;;;;;;21.60;28.40;;;;;;462391;257;1089;-39
2022/03/01 08:35:10;;;;;;;;;;;21.60;28.40;;;;;;462124;257;1094;-39
2022/03/01 08:37:12;;;;;;;;;;;21.60;28.30;;;;;;462192;257;1296;-39
2022/03/01 08:39:13;;;;;;;;;;;21.60;28.30;;;;;;462228;257;2207;-39
2022/03/01 08:41:14;;;;;;;;;;;21.60;28.40;;;;;;462032;257;1235;-39
2022/03/01 08:43:16;;;;;;;;;;;21.70;28.40;;;;;;462113;257;1138;-39
2022/03/01 08:45:17;;;;;;;;;;;21.70;28.30;;;;;;462206;257;1240;-39
2022/03/01 08:47:18;;;;;;;;;;;21.60;28.30;;;;;;462187;257;1216;-39
2022/03/01 08:49:19;;;;;;;;;;;21.60;28.30;;;;;;462212;257;1123;-39
2022/03/01 08:51:21;;;;;;;;;;;21.70;28.40;;;;;;462120;257;1360;-39
2022/03/01 08:53:22;;;;;;;;;;;21.70;28.40;;;;;;461871;257;1312;-39
2022/03/01 08:55:24;;;;;;;;;;;21.60;28.30;;;;;;461883;257;1076;-39
2022/03/01 08:57:25;;;;;;;;;;;21.60;28.30;;;;;;461947;257;1069;-39
2022/03/01 08:59:27;;;;;;;;;;;21.70;28.30;;;;;;462058;257;2187;-39
2022/03/01 09:01:28;;;;;;;;;;;21.60;28.40;;;;;;461992;257;1323;-39
2022/03/01 09:03:30;;;;;;;;;;;21.60;28.30;;;;;;462021;257;1245;-39
2022/03/01 09:05:32;;;;;;;;;;;21.60;28.30;;;;;;461892;256;2003;-39
2022/03/01 09:07:32;;;;;;;;;;;21.60;28.30;;;;;;461955;257;2152;-39
2022/03/01 09:09:33;;;;;;;;;;;21.60;28.30;;;;;;461981;257;1144;-39
2022/03/01 09:11:34;;;;;;;;;;;21.70;28.30;;;;;;461985;257;1353;-39
2022/03/01 09:13:36;;;;;;;;;;;21.70;28.30;;;;;;461944;257;1237;-39
2022/03/01 09:15:37;;;;;;;;;;;21.70;28.30;;;;;;461855;257;1241;-39
2022/03/01 09:17:38;;;;;;;;;;;21.70;28.30;;;;;;462001;257;1259;-39
2022/03/01 09:19:40;;;;;;;;;;;21.70;28.30;;;;;;462060;257;2194;-39
2022/03/01 09:21:41;;;;;;;;;;;21.60;28.30;;;;;;461791;257;1396;-39
2022/03/01 09:23:43;;;;;;;;;;;21.70;28.30;;;;;;462133;257;1158;-39
2022/03/01 09:25:44;;;;;;;;;;;21.60;28.30;;;;;;462072;257;1134;-39
2022/03/01 09:27:45;;;;;;;;;;;21.60;28.30;;;;;;462122;257;1342;-39
2022/03/01 09:29:47;;;;;;;;;;;21.70;28.30;;;;;;462186;257;1045;-39
2022/03/01 09:31:48;;;;;;;;;;;21.70;28.30;;;;;;461895;257;1323;-39
2022/03/01 09:33:49;;;;;;;;;;;21.60;28.30;;;;;;462136;257;1246;-39
2022/03/01 09:35:51;;;;;;;;;;;21.60;28.30;;;;;;462130;257;1459;-39
2022/03/01 09:37:52;;;;;;;;;;;21.60;28.30;;;;;;462028;257;1177;-39
2022/03/01 09:39:53;;;;;;;;;;;21.60;28.30;;;;;;461868;257;2148;-39
2022/03/01 09:41:55;;;;;;;;;;;21.60;28.30;;;;;;461986;257;1343;-39
2022/03/01 09:43:58;;;;;;;;;;;21.60;28.30;;;;;;462057;257;1269;-39
2022/03/01 09:45:57;;;;;;;;;;;21.70;28.30;;;;;;461971;257;2184;-39
2022/03/01 09:47:59;;;;;;;;;;;21.70;28.20;;;;;;461993;257;1370;-39
2022/03/01 09:50:00;;;;;;;;;;;21.70;28.20;;;;;;461933;257;1092;-39
2022/03/01 09:52:02;;;;;;;;;;;21.70;28.20;;;;;;462117;257;1261;-39
2022/03/01 09:54:03;;;;;;;;;;;21.70;28.20;;;;;;462050;257;1276;-39
2022/03/01 09:56:05;;;;;;;;;;;21.70;28.20;;;;;;461906;257;1170;-40
2022/03/01 09:58:05;;;;;;;;;;;21.70;28.20;;;;;;462024;257;1126;-39
2022/03/01 10:00:07;;;;;;;;;;;21.80;28.20;;;;;;461927;257;2192;-39
2022/03/01 10:02:08;;;;;;;;;;;21.70;28.20;;;;;;461788;257;1195;-39
2022/03/01 10:04:09;;;;;;;;;;;21.70;28.20;;;;;;461968;257;1087;-39
2022/03/01 10:06:11;;;;;;;;;;;21.70;28.20;;;;;;461927;257;1393;-39
2022/03/01 10:08:12;;;;;;;;;;;21.70;28.20;;;;;;461975;257;1142;-39
2022/03/01 10:10:16;;;;;;;;;;;21.70;28.20;;;;;;462079;257;1070;-39
2022/03/01 10:12:15;;;;;;;;;;;21.70;28.20;;;;;;461888;257;2451;-39
2022/03/01 10:14:17;;;;;;;;;;;21.70;28.20;;;;;;461957;257;1229;-39
2022/03/01 10:16:18;;;;;;;;;;;21.70;28.20;;;;;;461710;257;1327;-39
2022/03/01 10:18:20;;;;;;;;;;;21.60;28.20;;;;;;462068;257;1379;-39
2022/03/01 10:20:21;;;;;;;;;;;21.70;28.20;;;;;;462061;257;2195;-39
2022/03/01 10:22:22;;;;;;;;;;;21.70;28.20;;;;;;462206;257;1546;-39
2022/03/01 10:24:23;;;;;;;;;;;21.70;28.20;;;;;;462139;257;1180;-39
2022/03/01 10:26:25;;;;;;;;;;;21.60;28.20;;;;;;462088;257;1349;-39
2022/03/01 10:28:26;;;;;;;;;;;21.70;28.30;;;;;;462625;257;1266;-39
2022/03/01 10:30:27;;;;;;;;;;;21.60;28.30;;;;;;461930;257;1276;-39
2022/03/01 10:32:29;;;;;;;;;;;21.60;28.30;;;;;;461835;257;1223;-40
2022/03/01 10:34:30;;;;;;;;;;;21.60;28.20;;;;;;462114;257;1101;-39
2022/03/01 10:36:32;;;;;;;;;;;21.70;28.20;;;;;;462056;257;1165;-39
2022/03/01 10:38:33;;;;;;;;;;;21.70;28.10;;;;;;462341;257;1207;-39
2022/03/01 10:40:34;;;;;;;;;;;21.60;28.10;;;;;;462631;257;2203;-39
2022/03/01 10:42:35;;;;;;;;;;;21.60;28.10;;;;;;462078;257;1073;-39
2022/03/01 10:44:37;;;;;;;;;;;21.70;28.10;;;;;;462233;257;1127;-39
2022/03/01 10:46:38;;;;;;;;;;;21.70;28.10;;;;;;462216;257;1311;-39
2022/03/01 10:48:39;;;;;;;;;;;21.60;28.10;;;;;;462202;257;1152;-39
2022/03/01 10:50:41;;;;;;;;;;;21.70;28.10;;;;;;462143;257;1264;-39
2022/03/01 10:52:42;;;;;;;;;;;21.70;28.10;;;;;;462117;257;1237;-39
2022/03/01 10:54:43;;;;;;;;;;;21.60;28.00;;;;;;461861;257;1134;-39
2022/03/01 10:56:45;;;;;;;;;;;21.70;28.10;;;;;;462014;257;1323;-39
2022/03/01 10:58:48;;;;;;;;;;;21.70;28.00;;;;;;462032;257;1121;-39
2022/03/01 11:00:48;;;;;;;;;;;21.70;28.10;;;;;;462195;257;2302;-39
2022/03/01 11:02:49;;;;;;;;;;;21.70;28.10;;;;;;462342;257;1050;-39
2022/03/01 11:04:50;;;;;;;;;;;21.60;28.00;;;;;;462287;257;898;-39
2022/03/01 11:06:52;;;;;;;;;;;21.70;28.00;;;;;;462732;257;1142;-39
2022/03/01 11:08:53;;;;;;;;;;;21.60;28.00;;;;;;462130;257;1213;-39
2022/03/01 11:10:54;;;;;;;;;;;21.70;28.00;;;;;;462003;257;1187;-39
2022/03/01 11:12:56;;;;;;;;;;;21.60;28.00;;;;;;461994;257;1128;-39
2022/03/01 11:14:57;;;;;;;;;;;21.60;28.00;;;;;;462096;257;1191;-39
2022/03/01 11:16:59;;;;;;;;;;;21.60;28.00;;;;;;461854;257;1231;-39
2022/03/01 11:19:00;;;;;;;;;;;21.60;28.00;;;;;;462076;257;1278;-39
2022/03/01 11:21:02;;;;;;;;;;;21.60;28.00;;;;;;462068;257;2196;-39
2022/03/01 11:23:03;;;;;;;;;;;21.60;27.90;;;;;;462006;257;1281;-39
2022/03/01 11:25:05;;;;;;;;;;;21.60;27.90;;;;;;462062;257;1154;-39
2022/03/01 11:27:06;;;;;;;;;;;21.60;28.00;;;;;;462089;257;1203;-38
2022/03/01 11:29:08;;;;;;;;;;;21.60;27.90;;;;;;462029;257;1085;-39
2022/03/01 11:31:09;;;;;;;;;;;21.60;28.00;;;;;;462065;257;1259;-39
2022/03/01 11:33:10;;;;;;;;;;;21.60;28.00;;;;;;461837;257;1259;-39
2022/03/01 11:35:11;;;;;;;;;;;21.60;27.90;;;;;;461961;257;1144;-39
2022/03/01 11:37:13;;;;;;;;;;;21.60;27.90;;;;;;462171;257;1207;-38
2022/03/01 11:39:14;;;;;;;;;;;21.60;27.90;;;;;;462193;257;1205;-39
2022/03/01 11:41:19;;;;;;;;;;;21.70;27.90;;;;;;461960;257;2196;-39
2022/03/01 11:43:17;;;;;;;;;;;21.70;27.90;;;;;;461698;258;2355;-39
2022/03/01 11:45:18;;;;;;;;;;;21.70;27.80;;;;;;461984;257;1233;-39
2022/03/01 11:47:19;;;;;;;;;;;21.60;27.80;;;;;;461926;257;1381;-39
2022/03/01 11:49:21;;;;;;;;;;;21.70;27.90;;;;;;462222;257;1237;-39
2022/03/01 11:51:22;;;;;;;;;;;21.60;27.80;;;;;;462152;257;1257;-39
2022/03/01 11:53:23;;;;;;;;;;;21.60;27.90;;;;;;462144;257;1334;-38
2022/03/01 11:55:25;;;;;;;;;;;21.70;27.80;;;;;;462110;257;1145;-39
2022/03/01 11:57:29;;;;;;;;;;;21.70;27.80;;;;;;462063;257;1270;-38
2022/03/01 11:59:28;;;;;;;;;;;21.70;27.80;;;;;;462057;257;1787;-39